Time;durP1;ratioP1;P1;durP2;ratioP2;P2;SDS_P1;SDS_P2;PMS_P1;PMS_P2;Temp;Humidity;BMP_temperature;BMP_pressure;BME280_temperature;BME280_humidity;BME280_pressure;Samples;Min_cycle;Max_cycle;Signal;HPM_P1;HPM_P2
2022/05/22 00:01:31;;;;;;;5.47;3.37;;;12.30;99.90;;;;;;4962337;28;20473;-73
2022/05/22 00:03:59;;;;;;;9.00;2.80;;;12.20;99.90;;;;;;4962403;28;20774;-73
2022/05/22 00:06:29;;;;;;;6.73;3.73;;;12.20;99.90;;;;;;4962362;28;20445;-77
2022/05/22 00:08:57;;;;;;;8.17;2.80;;;12.20;99.90;;;;;;4962727;28;20459;-73
2022/05/22 00:11:25;;;;;;;13.57;4.13;;;12.20;99.90;;;;;;4962058;28;20836;-74
2022/05/22 00:13:53;;;;;;;7.00;3.20;;;12.30;99.90;;;;;;4962769;28;20768;-73
2022/05/22 00:16:40;;;;;;;10.60;3.10;;;12.30;99.90;;;;;;4961891;28;21158;-73
2022/05/22 00:19:10;;;;;;;6.90;3.43;;;12.30;99.90;;;;;;4969242;28;20462;-73
2022/05/22 00:21:40;;;;;;;7.63;3.20;;;12.20;99.90;;;;;;4962948;28;20482;-73
2022/05/22 00:24:10;;;;;;;6.37;3.30;;;12.30;99.90;;;;;;4963528;28;20535;-73
2022/05/22 00:26:38;;;;;;;7.67;2.93;;;12.30;99.90;;;;;;4963021;28;20440;-73
2022/05/22 00:29:06;;;;;;;5.40;2.40;;;12.30;99.90;;;;;;4963965;28;20444;-73
2022/05/22 00:31:34;;;;;;;9.60;3.30;;;12.20;99.90;;;;;;4964962;28;20472;-73
2022/05/22 00:34:03;;;;;;;6.20;2.80;;;12.20;99.90;;;;;;4963529;28;20448;-73
2022/05/22 00:36:30;;;;;;;13.03;4.10;;;12.20;99.90;;;;;;4962754;28;20487;-73
2022/05/22 00:38:59;;;;;;;9.50;3.87;;;12.10;99.90;;;;;;4962768;28;20443;-73
2022/05/22 00:41:27;;;;;;;7.30;3.80;;;12.10;99.90;;;;;;4962852;28;20447;-73
2022/05/22 00:43:57;;;;;;;9.90;4.50;;;12.10;99.90;;;;;;4962608;28;20471;-74
2022/05/22 00:46:26;;;;;;;10.57;4.00;;;12.10;99.90;;;;;;4962874;28;20531;-73
2022/05/22 00:48:59;;;;;;;8.77;3.90;;;12.00;99.90;;;;;;4962466;28;20737;-73
2022/05/22 00:51:32;;;;;;;8.10;4.00;;;12.00;99.90;;;;;;4962232;28;20816;-73
2022/05/22 00:54:05;;;;;;;6.40;3.23;;;12.00;99.90;;;;;;4961243;28;20444;-73
2022/05/22 00:56:37;;;;;;;14.77;4.53;;;12.00;99.90;;;;;;4961945;28;20480;-73
2022/05/22 00:59:09;;;;;;;6.97;2.87;;;12.00;99.90;;;;;;4961351;28;20761;-73
2022/05/22 01:01:37;;;;;;;8.33;3.63;;;12.00;99.90;;;;;;4961869;28;20739;-73
2022/05/22 01:04:09;;;;;;;10.37;4.13;;;12.00;99.90;;;;;;4961432;28;20444;-73
2022/05/22 01:06:38;;;;;;;5.67;3.77;;;11.90;99.90;;;;;;4961420;28;20732;-73
2022/05/22 01:09:07;;;;;;;14.63;4.73;;;11.90;99.90;;;;;;4961657;28;20612;-74
2022/05/22 01:11:37;;;;;;;14.40;5.30;;;11.90;99.90;;;;;;4960771;28;20618;-72
2022/05/22 01:14:07;;;;;;;10.13;3.50;;;11.90;99.90;;;;;;4961635;28;20459;-71
2022/05/22 01:16:35;;;;;;;7.13;4.23;;;11.90;99.90;;;;;;4960671;28;20538;-71
2022/05/22 01:19:11;;;;;;;12.50;5.37;;;12.00;99.90;;;;;;4961475;28;20951;-72
2022/05/22 01:21:41;;;;;;;8.40;3.50;;;12.00;99.90;;;;;;4960989;28;20470;-72
2022/05/22 01:24:10;;;;;;;7.57;4.10;;;11.90;99.90;;;;;;4960836;28;20460;-71
2022/05/22 01:26:38;;;;;;;10.30;4.80;;;11.90;99.90;;;;;;4960608;28;20439;-74
2022/05/22 01:29:06;;;;;;;8.00;4.30;;;11.80;99.90;;;;;;4960403;28;20448;-74
2022/05/22 01:31:34;;;;;;;5.50;4.40;;;11.80;99.90;;;;;;4960892;28;20460;-76
2022/05/22 01:34:02;;;;;;;15.67;5.40;;;11.70;99.90;;;;;;4960660;28;20864;-75
2022/05/22 01:36:30;;;;;;;6.90;4.23;;;11.70;99.90;;;;;;4960578;28;20475;-76
2022/05/22 01:38:57;;;;;;;10.20;4.23;;;11.70;99.90;;;;;;4960351;28;20444;-76
2022/05/22 01:41:26;;;;;;;12.93;6.83;;;11.70;99.90;;;;;;4960493;28;20475;-75
2022/05/22 01:43:54;;;;;;;9.40;5.13;;;11.60;99.90;;;;;;4960516;28;20448;-75
2022/05/22 01:46:22;;;;;;;12.23;4.93;;;11.70;99.90;;;;;;4959883;28;20478;-73
2022/05/22 01:48:50;;;;;;;9.50;4.80;;;11.60;99.90;;;;;;4960601;28;20808;-73
2022/05/22 01:51:18;;;;;;;16.50;5.40;;;11.60;99.90;;;;;;4959661;28;20864;-73
2022/05/22 01:53:46;;;;;;;8.30;5.20;;;11.70;99.90;;;;;;4959938;28;20507;-73
2022/05/22 01:56:14;;;;;;;13.00;5.13;;;11.70;99.90;;;;;;4960387;28;20452;-75
2022/05/22 01:58:43;;;;;;;10.20;5.33;;;11.80;99.90;;;;;;4960059;28;20460;-74
2022/05/22 02:01:11;;;;;;;14.43;5.80;;;11.90;99.90;;;;;;4960291;28;20892;-74
2022/05/22 02:03:39;;;;;;;7.83;4.80;;;11.90;99.90;;;;;;4959833;28;20450;-75
2022/05/22 02:06:07;;;;;;;11.73;4.97;;;12.00;99.90;;;;;;4958677;28;20448;-74
2022/05/22 02:08:34;;;;;;;8.23;4.47;;;12.10;99.90;;;;;;4960221;28;20436;-73
2022/05/22 02:11:05;;;;;;;10.00;4.63;;;12.20;99.90;;;;;;4959598;28;20460;-74
2022/05/22 02:13:35;;;;;;;10.63;5.40;;;12.30;99.90;;;;;;4960139;28;20531;-74
2022/05/22 02:16:04;;;;;;;10.33;4.73;;;12.30;99.90;;;;;;4959794;28;20460;-73
2022/05/22 02:18:33;;;;;;;6.77;4.30;;;12.40;99.90;;;;;;4959472;28;20502;-74
2022/05/22 02:21:01;;;;;;;11.23;4.60;;;12.40;99.90;;;;;;4959621;28;20476;-74
2022/05/22 02:23:31;;;;;;;8.47;4.40;;;12.50;99.90;;;;;;4959490;28;20447;-74
2022/05/22 02:25:59;;;;;;;10.83;4.07;;;12.60;99.90;;;;;;4959523;28;20503;-74
2022/05/22 02:28:28;;;;;;;6.70;3.77;;;12.60;99.90;;;;;;4959564;28;20969;-74
2022/05/22 02:30:59;;;;;;;13.57;5.00;;;12.50;99.90;;;;;;4959621;28;21005;-74
2022/05/22 02:33:29;;;;;;;9.50;4.73;;;12.50;99.90;;;;;;4959939;28;20732;-75
2022/05/22 02:35:57;;;;;;;10.13;4.63;;;12.40;99.90;;;;;;4959655;28;20466;-75
2022/05/22 02:38:25;;;;;;;8.90;4.03;;;12.30;99.90;;;;;;4959694;28;20484;-75
2022/05/22 02:40:52;;;;;;;9.50;4.23;;;12.20;99.90;;;;;;4959582;28;20467;-75
2022/05/22 02:43:20;;;;;;;11.80;4.73;;;12.20;99.90;;;;;;4959719;28;20447;-75
2022/05/22 02:45:48;;;;;;;10.10;4.30;;;12.20;99.90;;;;;;4959737;28;20452;-75
2022/05/22 02:48:16;;;;;;;6.23;4.80;;;12.20;99.90;;;;;;4960468;28;20452;-76
2022/05/22 02:50:46;;;;;;;15.67;4.70;;;12.10;99.90;;;;;;4961236;28;20477;-76
2022/05/22 02:53:14;;;;;;;9.90;5.00;;;12.00;99.90;;;;;;4963880;28;20515;-76
2022/05/22 02:55:43;;;;;;;6.33;4.43;;;12.00;99.90;;;;;;4960528;28;20448;-75
2022/05/22 02:58:12;;;;;;;9.50;4.17;;;12.00;99.90;;;;;;4960302;28;20483;-75
2022/05/22 03:00:40;;;;;;;9.00;4.37;;;12.00;99.90;;;;;;4960327;28;20474;-75
2022/05/22 03:03:08;;;;;;;11.73;4.43;;;12.00;99.90;;;;;;4960333;28;20431;-75
2022/05/22 03:08:22;;;;;;;9.87;4.73;;;11.90;99.90;;;;;;4961132;28;20443;-73
2022/05/22 03:10:50;;;;;;;9.60;4.10;;;11.90;99.90;;;;;;4960857;28;20475;-73
2022/05/22 03:13:18;;;;;;;6.27;3.40;;;11.90;99.90;;;;;;4960504;28;20460;-73
2022/05/22 03:15:46;;;;;;;12.80;4.90;;;11.80;99.90;;;;;;4960302;28;20450;-74
2022/05/22 03:18:13;;;;;;;11.77;4.03;;;11.80;99.90;;;;;;4959807;28;20507;-73
2022/05/22 03:20:41;;;;;;;15.67;5.07;;;11.80;99.90;;;;;;4959751;28;20463;-73
2022/05/22 03:23:09;;;;;;;12.03;4.60;;;11.80;99.90;;;;;;4960415;28;20830;-73
2022/05/22 03:25:39;;;;;;;12.67;4.90;;;11.90;99.90;;;;;;4960593;28;20733;-74
2022/05/22 03:28:07;;;;;;;10.03;3.97;;;11.90;99.90;;;;;;4960657;28;20436;-73
2022/05/22 03:30:35;;;;;;;11.10;4.70;;;11.90;99.90;;;;;;4960437;28;20472;-74
2022/05/22 03:33:03;;;;;;;8.57;3.83;;;11.90;99.90;;;;;;4959441;28;20778;-72
2022/05/22 03:35:31;;;;;;;16.23;5.30;;;11.90;99.90;;;;;;4959678;28;20443;-72
2022/05/22 03:37:59;;;;;;;11.63;4.57;;;11.80;99.90;;;;;;4959167;28;20480;-73
2022/05/22 03:40:27;;;;;;;6.50;3.77;;;11.80;99.90;;;;;;4958955;28;20444;-74
2022/05/22 03:42:57;;;;;;;10.73;4.97;;;11.80;99.90;;;;;;4959406;28;20466;-75
2022/05/22 03:45:25;;;;;;;13.53;4.50;;;11.80;99.90;;;;;;4959022;28;20460;-75
2022/05/22 03:47:52;;;;;;;11.63;4.03;;;11.90;99.90;;;;;;4959086;28;20563;-69
2022/05/22 03:50:20;;;;;;;15.73;4.33;;;12.00;99.90;;;;;;4958731;28;20459;-72
2022/05/22 03:52:48;;;;;;;8.37;4.17;;;12.00;99.90;;;;;;4959394;28;20452;-73
2022/05/22 03:55:16;;;;;;;10.57;4.13;;;12.00;99.90;;;;;;4958679;28;20935;-79
2022/05/22 03:57:46;;;;;;;12.90;4.67;;;12.00;99.90;;;;;;4958373;28;20479;-77
2022/05/22 04:00:18;;;;;;;6.23;3.90;;;12.10;99.90;;;;;;4926487;29;20989;-76
2022/05/22 04:02:46;;;;;;;10.87;3.70;;;12.10;99.90;;;;;;4930262;29;20460;-76
2022/05/22 04:05:14;;;;;;;7.00;3.83;;;12.10;99.90;;;;;;4924210;29;20524;-77
2022/05/22 04:07:45;;;;;;;9.27;4.37;;;12.20;99.90;;;;;;4931563;29;20556;-70
2022/05/22 04:10:15;;;;;;;7.27;3.80;;;12.30;99.90;;;;;;4924799;29;20474;-68
2022/05/22 04:12:43;;;;;;;10.73;4.27;;;12.30;99.90;;;;;;4935461;29;20482;-72
2022/05/22 04:15:14;;;;;;;10.50;4.20;;;12.40;99.90;;;;;;4938990;28;20734;-70
2022/05/22 04:17:43;;;;;;;8.10;3.70;;;12.50;99.90;;;;;;4921501;29;20477;-69
2022/05/22 04:20:12;;;;;;;11.73;4.83;;;12.50;99.90;;;;;;4922142;29;20457;-69
2022/05/22 04:25:21;;;;;;;11.20;3.70;;;12.60;99.90;;;;;;4931444;29;20459;-68
2022/05/22 04:27:49;;;;;;;11.53;4.20;;;12.60;99.90;;;;;;4939086;28;20672;-69
2022/05/22 04:30:19;;;;;;;8.33;3.63;;;12.70;99.90;;;;;;4930983;29;20463;-68
2022/05/22 04:32:50;;;;;;;12.80;4.33;;;12.70;99.90;;;;;;4947032;28;20451;-68
2022/05/22 04:35:25;;;;;;;17.13;4.17;;;12.80;99.90;;;;;;4952605;28;20851;-68
2022/05/22 04:37:53;;;;;;;6.27;3.50;;;12.90;99.90;;;;;;4951655;28;20479;-68
2022/05/22 04:40:24;;;;;;;7.90;3.77;;;13.00;99.90;;;;;;4950523;28;20463;-68
2022/05/22 04:42:52;;;;;;;10.60;4.97;;;13.10;99.90;;;;;;4952150;28;20447;-68
2022/05/22 04:45:20;;;;;;;7.33;3.97;;;13.20;99.90;;;;;;4954383;28;20746;-68
2022/05/22 04:47:49;;;;;;;8.43;4.40;;;13.30;99.90;;;;;;4951160;28;20444;-68
2022/05/22 04:50:18;;;;;;;9.87;3.77;;;13.40;99.90;;;;;;4949986;28;20775;-68
2022/05/22 04:52:46;;;;;;;11.93;3.70;;;13.50;99.90;;;;;;4953236;28;20571;-68
2022/05/22 04:55:19;;;;;;;10.17;4.53;;;13.60;99.90;;;;;;4949661;28;20440;-68
2022/05/22 04:57:46;;;;;;;10.97;3.73;;;13.80;99.90;;;;;;4951438;28;20459;-68
2022/05/22 05:00:15;;;;;;;6.30;3.63;;;13.80;99.90;;;;;;4956605;28;20450;-67
2022/05/22 05:02:43;;;;;;;9.43;3.33;;;13.90;99.90;;;;;;4957734;28;21223;-74
2022/05/22 05:05:12;;;;;;;11.40;4.27;;;13.90;99.90;;;;;;4945138;28;20960;-73
2022/05/22 05:07:41;;;;;;;8.97;3.57;;;14.00;99.90;;;;;;4942063;29;20970;-73
2022/05/22 05:10:12;;;;;;;12.57;3.67;;;14.00;99.90;;;;;;4947942;29;20528;-73
2022/05/22 05:12:41;;;;;;;6.00;3.00;;;14.10;99.90;;;;;;4943964;28;20998;-75
2022/05/22 05:15:14;;;;;;;15.33;4.93;;;14.10;99.90;;;;;;4942333;29;20543;-74
2022/05/22 05:17:43;;;;;;;6.37;3.13;;;14.10;99.90;;;;;;4941878;29;20433;-76
2022/05/22 05:20:14;;;;;;;8.80;3.70;;;14.20;99.90;;;;;;4932691;29;20585;-69
2022/05/22 05:22:42;;;;;;;11.83;3.07;;;14.30;99.90;;;;;;4935380;29;20713;-69
2022/05/22 05:25:12;;;;;;;4.10;3.00;;;14.30;99.90;;;;;;4932489;29;20453;-70
2022/05/22 05:27:39;;;;;;;9.30;3.10;;;14.40;99.90;;;;;;4923270;29;20468;-70
2022/05/22 05:30:08;;;;;;;6.90;3.30;;;14.40;99.90;;;;;;4938231;29;20469;-70
2022/05/22 05:32:36;;;;;;;5.10;2.60;;;14.40;99.90;;;;;;4942041;29;20559;-70
2022/05/22 05:35:09;;;;;;;6.10;3.27;;;14.40;99.90;;;;;;4939407;29;20449;-70
2022/05/22 05:37:39;;;;;;;10.23;4.33;;;14.40;99.90;;;;;;4942496;29;21040;-70
2022/05/22 05:40:08;;;;;;;4.50;2.80;;;14.40;99.90;;;;;;4942167;28;20496;-70
2022/05/22 05:42:37;;;;;;;8.00;3.47;;;14.50;99.90;;;;;;4942108;29;20468;-70
2022/05/22 05:45:10;;;;;;;7.03;3.40;;;14.50;99.90;;;;;;4942178;29;20453;-70
2022/05/22 05:47:38;;;;;;;13.40;4.43;;;14.50;99.90;;;;;;4941879;29;20444;-69
2022/05/22 05:50:07;;;;;;;6.67;2.70;;;14.50;99.90;;;;;;4942465;28;20437;-68
2022/05/22 05:52:34;;;;;;;8.20;4.20;;;14.60;99.90;;;;;;4941746;28;20506;-69
2022/05/22 05:55:05;;;;;;;4.90;3.00;;;14.60;99.90;;;;;;4941590;28;20452;-69
2022/05/22 05:57:32;;;;;;;6.20;2.60;;;14.70;99.90;;;;;;4941464;29;20795;-69
2022/05/22 06:00:00;;;;;;;6.20;3.10;;;14.70;99.90;;;;;;4941593;29;21058;-69
2022/05/22 06:02:28;;;;;;;7.20;2.83;;;14.80;99.90;;;;;;4941148;28;20476;-69
2022/05/22 06:04:56;;;;;;;8.27;3.30;;;14.90;99.90;;;;;;4941475;28;20571;-69
2022/05/22 06:07:24;;;;;;;6.70;3.30;;;15.10;99.90;;;;;;4942515;29;20457;-69
2022/05/22 06:09:52;;;;;;;6.07;2.53;;;15.10;99.90;;;;;;4940233;28;20441;-68
2022/05/22 06:12:21;;;;;;;8.13;3.30;;;15.20;99.90;;;;;;4940785;29;20469;-69
2022/05/22 06:14:49;;;;;;;4.50;2.30;;;15.20;99.90;;;;;;4940060;29;20957;-68
2022/05/22 06:17:17;;;;;;;9.40;3.83;;;15.30;99.90;;;;;;4940602;29;20483;-68
2022/05/22 06:19:57;;;;;;;5.90;2.77;;;15.40;99.90;;;;;;4940106;29;20583;-69
2022/05/22 06:22:32;;;;;;;6.67;3.10;;;15.40;99.90;;;;;;4940656;29;21019;-67
2022/05/22 06:25:01;;;;;;;7.33;4.00;;;15.40;99.90;;;;;;4940365;29;20445;-74
2022/05/22 06:27:30;;;;;;;9.83;3.63;;;15.30;99.90;;;;;;4940810;29;20433;-74
2022/05/22 06:29:58;;;;;;;5.73;3.07;;;15.20;99.90;;;;;;4941838;28;20894;-74
2022/05/22 06:32:27;;;;;;;6.50;3.03;;;15.40;99.90;;;;;;4934882;29;20981;-74
2022/05/22 06:35:02;;;;;;;10.70;2.80;;;15.50;99.90;;;;;;4939886;29;20449;-77
2022/05/22 06:37:34;;;;;;;7.00;3.30;;;15.60;99.90;;;;;;4937658;29;20886;-75
2022/05/22 06:40:05;;;;;;;10.30;2.67;;;15.60;99.90;;;;;;4933701;29;20581;-76
2022/05/22 06:42:36;;;;;;;4.97;2.70;;;15.70;99.90;;;;;;4931034;28;20481;-75
2022/05/22 06:45:07;;;;;;;12.93;3.73;;;15.70;99.90;;;;;;4939161;28;20467;-75
2022/05/22 06:47:36;;;;;;;11.73;3.30;;;15.80;99.90;;;;;;4933936;29;20480;-75
2022/05/22 06:50:06;;;;;;;6.13;3.57;;;16.00;99.90;;;;;;4930552;29;20445;-75
2022/05/22 06:52:35;;;;;;;6.63;3.80;;;16.10;99.90;;;;;;4921162;29;20457;-76
2022/05/22 06:55:05;;;;;;;4.93;2.70;;;16.10;99.90;;;;;;4930651;29;20476;-76
2022/05/22 06:57:36;;;;;;;8.47;2.90;;;16.20;99.90;;;;;;4932971;29;20449;-76
2022/05/22 07:00:06;;;;;;;3.37;2.40;;;16.20;99.90;;;;;;4920793;29;20500;-75
2022/05/22 07:02:39;;;;;;;6.93;2.47;;;16.20;99.90;;;;;;4932450;29;20891;-78
2022/05/22 07:05:08;;;;;;;5.57;2.50;;;16.20;99.90;;;;;;4927534;29;20780;-79
2022/05/22 07:07:36;;;;;;;8.10;3.30;;;16.30;99.90;;;;;;4928007;28;20536;-78
2022/05/22 07:10:05;;;;;;;5.87;3.27;;;16.30;99.90;;;;;;4920208;29;20448;-78
2022/05/22 07:12:34;;;;;;;7.77;3.07;;;16.30;99.90;;;;;;4920757;29;20565;-78
2022/05/22 07:15:03;;;;;;;6.33;2.93;;;16.20;99.90;;;;;;4926220;28;20456;-78
2022/05/22 07:17:31;;;;;;;7.37;3.27;;;16.10;99.90;;;;;;4942843;28;20984;-78
2022/05/22 07:20:00;;;;;;;6.43;2.60;;;16.00;99.90;;;;;;4942581;28;20480;-77
2022/05/22 07:22:27;;;;;;;10.83;2.97;;;16.10;99.90;;;;;;4929990;28;21021;-78
2022/05/22 07:24:56;;;;;;;10.93;2.93;;;16.20;99.90;;;;;;4934805;29;20466;-77
2022/05/22 07:27:23;;;;;;;7.20;2.70;;;16.30;99.90;;;;;;4930128;29;20973;-77
2022/05/22 07:29:53;;;;;;;8.20;3.00;;;16.30;99.90;;;;;;4924258;29;20454;-78
2022/05/22 07:32:21;;;;;;;7.23;2.97;;;16.20;99.90;;;;;;4929392;29;20551;-77
2022/05/22 07:34:48;;;;;;;6.80;2.57;;;16.10;99.90;;;;;;4940763;29;20452;-77
2022/05/22 07:37:21;;;;;;;13.20;2.93;;;16.00;99.90;;;;;;4940942;28;20480;-77
2022/05/22 07:39:49;;;;;;;5.23;2.77;;;16.00;99.90;;;;;;4941880;28;20760;-78
2022/05/22 07:42:17;;;;;;;5.20;2.00;;;16.00;99.90;;;;;;4939342;29;21211;-78
2022/05/22 07:44:46;;;;;;;10.10;2.60;;;16.10;99.90;;;;;;4939637;29;21063;-77
2022/05/22 07:47:15;;;;;;;6.80;2.20;;;16.40;99.90;;;;;;4937557;29;20457;-74
2022/05/22 07:52:29;;;;;;;4.97;2.33;;;16.90;99.90;;;;;;4945517;29;20853;-84
2022/05/22 07:54:57;;;;;;;7.10;2.00;;;17.10;99.90;;;;;;4950292;29;20442;-81
2022/05/22 07:57:25;;;;;;;5.27;2.67;;;17.10;99.90;;;;;;4941874;28;20462;-76
2022/05/22 07:59:53;;;;;;;8.80;2.50;;;17.10;99.90;;;;;;4926735;29;20487;-71
2022/05/22 08:02:22;;;;;;;3.93;2.40;;;17.00;99.90;;;;;;4938818;28;20480;-71
2022/05/22 08:04:50;;;;;;;8.10;3.77;;;16.90;99.90;;;;;;4937031;29;20453;-71
2022/05/22 08:07:18;;;;;;;7.83;2.47;;;16.70;99.90;;;;;;4933619;29;20664;-71
2022/05/22 08:09:45;;;;;;;5.40;2.40;;;16.60;99.90;;;;;;4927487;28;20469;-71
2022/05/22 08:12:13;;;;;;;4.43;1.70;;;16.50;99.90;;;;;;4932389;29;21024;-71
2022/05/22 08:14:41;;;;;;;2.90;1.90;;;16.40;99.90;;;;;;4924183;29;20557;-71
2022/05/22 08:17:09;;;;;;;5.00;2.40;;;16.40;99.90;;;;;;4938528;29;20457;-72
2022/05/22 08:19:38;;;;;;;3.90;1.77;;;16.30;99.90;;;;;;4939499;29;20480;-72
2022/05/22 08:22:06;;;;;;;8.07;2.40;;;16.50;99.90;;;;;;4927286;29;20571;-72
2022/05/22 08:24:34;;;;;;;3.10;2.03;;;16.50;99.90;;;;;;4936532;29;20459;-72
2022/05/22 08:27:02;;;;;;;5.50;2.10;;;16.70;99.90;;;;;;4931284;28;20555;-72
2022/05/22 08:29:30;;;;;;;4.23;1.80;;;17.00;99.90;;;;;;4925502;29;20468;-72
2022/05/22 08:31:58;;;;;;;5.93;2.13;;;17.40;99.90;;;;;;4934371;29;21023;-71
2022/05/22 08:34:26;;;;;;;5.00;2.00;;;17.60;99.90;;;;;;4940554;28;20943;-76
2022/05/22 08:36:55;;;;;;;5.00;2.23;;;17.70;99.90;;;;;;4943565;29;20480;-78
2022/05/22 08:39:23;;;;;;;8.53;3.00;;;17.70;99.90;;;;;;4943943;28;20728;-79
2022/05/22 08:41:55;;;;;;;4.47;2.10;;;17.50;99.90;;;;;;4949215;28;20599;-81
2022/05/22 08:44:28;;;;;;;5.67;1.73;;;17.40;99.90;;;;;;4940980;28;20459;-79
2022/05/22 08:47:01;;;;;;;6.60;2.03;;;17.30;99.90;;;;;;4939662;29;21367;-87
2022/05/22 08:49:32;;;;;;;5.70;2.43;;;17.10;99.90;;;;;;4932155;29;20485;-78
2022/05/22 08:52:12;;;;;;;8.50;2.07;;;16.90;99.90;;;;;;4924916;29;20871;-74
2022/05/22 08:54:42;;;;;;;5.67;2.10;;;16.60;99.90;;;;;;4929929;29;20785;-74
2022/05/22 09:00:09;;;;;;;10.27;2.17;;;16.40;99.90;;;;;;4935438;29;20468;-72
2022/05/22 09:02:45;;;;;;;4.37;1.90;;;16.60;99.90;;;;;;4926773;29;20785;-76
2022/05/22 09:05:17;;;;;;;4.83;2.73;;;16.70;99.90;;;;;;4926363;29;20958;-75
2022/05/22 09:07:56;;;;;;;3.97;2.10;;;17.00;99.90;;;;;;4937996;28;20912;-82
2022/05/22 09:10:32;;;;;;;8.53;1.90;;;17.20;99.90;;;;;;4940321;29;20449;-78
2022/05/22 09:13:11;;;;;;;4.40;1.57;;;17.30;99.90;;;;;;4946985;29;20609;-78
2022/05/22 09:16:10;;;;;;;5.83;3.60;;;17.30;99.90;;;;;;4944909;29;20788;-82
2022/05/22 09:18:45;;;;;;;5.17;2.33;;;17.30;99.90;;;;;;4959243;28;20487;-77
2022/05/22 09:21:24;;;;;;;2.73;2.20;;;17.20;99.90;;;;;;4950725;29;20488;-76
2022/05/22 09:23:58;;;;;;;3.83;1.77;;;17.10;99.90;;;;;;4941970;29;20441;-75
2022/05/22 09:26:37;;;;;;;3.33;2.03;;;17.00;99.90;;;;;;4937482;29;20473;-75
2022/05/22 09:29:31;;;;;;;7.60;1.93;;;16.90;99.90;;;;;;4926080;28;20465;-74
2022/05/22 09:32:09;;;;;;;8.20;2.40;;;16.80;99.90;;;;;;4930424;29;20565;-74
2022/05/22 09:34:48;;;;;;;4.57;1.70;;;16.80;99.90;;;;;;4941043;29;20457;-74
2022/05/22 09:37:29;;;;;;;4.73;2.00;;;16.80;99.90;;;;;;4937065;29;20964;-75
2022/05/22 09:40:16;;;;;;;4.17;1.67;;;16.90;99.90;;;;;;4926441;29;20481;-73
2022/05/22 09:43:17;;;;;;;3.17;1.47;;;17.00;99.90;;;;;;4921653;29;20895;-74
2022/05/22 09:45:57;;;;;;;5.57;1.70;;;17.30;99.90;;;;;;4888774;29;20443;-76
2022/05/22 09:48:49;;;;;;;8.50;2.37;;;17.50;99.90;;;;;;4924642;29;20742;-76
2022/05/22 09:51:22;;;;;;;3.33;1.50;;;17.70;99.90;;;;;;4927522;29;20480;-76
2022/05/22 09:54:06;;;;;;;3.40;1.40;;;18.00;99.90;;;;;;4940251;29;20548;-75
2022/05/22 09:57:06;;;;;;;3.80;1.20;;;18.10;99.90;;;;;;4924598;28;20900;-75
2022/05/22 09:59:53;;;;;;;2.50;1.13;;;18.20;99.90;;;;;;4921454;29;20459;-75
2022/05/22 10:05:25;;;;;;;1.60;1.03;;;18.10;99.90;;;;;;4919421;29;20764;-75
2022/05/22 10:07:59;;;;;;;4.80;1.10;;;17.90;99.90;;;;;;4923586;29;20439;-76
2022/05/22 10:10:34;;;;;;;4.87;1.20;;;17.80;99.90;;;;;;4939972;29;20474;-75
2022/05/22 10:13:16;;;;;;;2.30;1.10;;;17.90;99.90;;;;;;4921579;29;20616;-76
2022/05/22 10:15:53;;;;;;;1.13;0.60;;;18.10;99.90;;;;;;4938504;29;20841;-75
2022/05/22 10:18:49;;;;;;;2.00;0.93;;;18.30;99.90;;;;;;4938676;29;20467;-75
2022/05/22 10:21:26;;;;;;;0.70;0.70;;;18.60;99.90;;;;;;4940740;29;20491;-75
2022/05/22 10:24:09;;;;;;;1.40;0.87;;;18.80;99.90;;;;;;4940390;29;20507;-75
2022/05/22 10:26:51;;;;;;;4.80;1.43;;;19.00;99.90;;;;;;4933201;28;20475;-75
2022/05/22 10:29:26;;;;;;;2.77;1.30;;;19.10;99.90;;;;;;4935187;29;20535;-75
2022/05/22 10:32:00;;;;;;;1.40;1.07;;;19.00;99.90;;;;;;4934020;29;20475;-75
2022/05/22 10:34:37;;;;;;;1.27;1.17;;;18.90;99.90;;;;;;4927207;29;20448;-75
2022/05/22 10:37:14;;;;;;;2.80;1.00;;;18.90;99.90;;;;;;4930630;29;20465;-76
2022/05/22 10:39:41;;;;;;;1.97;1.03;;;18.90;99.90;;;;;;4923643;29;20451;-77
2022/05/22 10:45:09;;;;;;;2.63;1.50;;;18.90;99.90;;;;;;4925979;29;20938;-76
2022/05/22 10:47:37;;;;;;;2.60;1.20;;;18.80;99.90;;;;;;4925096;29;20449;-76
2022/05/22 10:50:21;;;;;;;2.63;1.03;;;18.80;99.90;;;;;;4925183;29;20545;-76
2022/05/22 10:52:49;;;;;;;2.40;1.03;;;18.80;99.90;;;;;;4929074;29;20468;-76
2022/05/22 10:55:26;;;;;;;3.13;1.00;;;18.90;99.90;;;;;;4928356;29;20460;-76
2022/05/22 10:57:55;;;;;;;2.43;1.30;;;18.90;99.90;;;;;;4927383;29;20463;-76
2022/05/22 11:00:26;;;;;;;5.47;1.40;;;18.90;99.90;;;;;;4927873;29;20465;-76
2022/05/22 11:02:54;;;;;;;3.23;1.00;;;18.90;99.90;;;;;;4931805;29;20492;-76
2022/05/22 11:05:27;;;;;;;2.10;0.90;;;18.90;99.90;;;;;;4939987;29;20469;-75
2022/05/22 11:07:57;;;;;;;3.10;1.33;;;18.90;99.90;;;;;;4931794;29;20466;-78
2022/05/22 11:10:28;;;;;;;2.20;0.73;;;19.10;99.90;;;;;;4925444;29;20468;-78
2022/05/22 11:13:06;;;;;;;2.20;0.77;;;19.40;99.90;;;;;;4934273;29;20484;-77
2022/05/22 11:15:39;;;;;;;1.83;1.13;;;19.80;99.90;;;;;;4921069;29;20561;-77
2022/05/22 11:18:09;;;;;;;2.27;1.40;;;20.20;99.90;;;;;;4920365;29;20552;-77
2022/05/22 11:20:43;;;;;;;3.17;1.17;;;20.40;99.90;;;;;;4924707;29;20934;-76
2022/05/22 11:23:40;;;;;;;4.43;1.27;;;20.40;99.90;;;;;;4941576;29;20523;-72
2022/05/22 11:26:29;;;;;;;3.30;0.90;;;20.60;99.90;;;;;;4933094;29;20457;-72
2022/05/22 11:29:22;;;;;;;2.80;0.83;;;20.70;99.90;;;;;;4919324;29;20717;-72
2022/05/22 11:31:59;;;;;;;1.90;0.73;;;20.70;99.90;;;;;;4922352;29;20469;-73
2022/05/22 11:34:49;;;;;;;2.30;0.83;;;20.70;99.90;;;;;;4920926;29;20451;-73
2022/05/22 11:37:27;;;;;;;4.50;1.00;;;20.70;99.90;;;;;;4933449;28;20559;-71
2022/05/22 11:40:09;;;;;;;2.93;1.20;;;20.80;99.90;;;;;;4937547;29;20514;-70
2022/05/22 11:42:38;;;;;;;5.13;1.00;;;20.80;99.90;;;;;;4935196;29;20510;-71
2022/05/22 11:45:22;;;;;;;1.57;0.90;;;20.90;99.90;;;;;;4928803;28;20963;-74
2022/05/22 11:48:16;;;;;;;1.80;0.90;;;21.00;99.90;;;;;;4923583;29;20461;-73
2022/05/22 11:50:51;;;;;;;1.37;0.90;;;21.10;99.90;;;;;;4931809;29;20477;-71
2022/05/22 11:53:53;;;;;;;1.50;1.03;;;21.20;99.90;;;;;;4935090;29;20509;-72
2022/05/22 11:56:49;;;;;;;1.73;0.80;;;21.30;99.90;;;;;;4927500;29;20457;-72
2022/05/22 11:59:33;;;;;;;1.67;1.50;;;21.30;99.90;;;;;;4922177;29;20477;-73
2022/05/22 12:02:13;;;;;;;2.00;1.27;;;21.30;99.90;;;;;;4929577;29;20492;-73
2022/05/22 12:04:59;;;;;;;3.83;1.47;;;21.10;99.90;;;;;;4932831;29;20461;-74
2022/05/22 12:07:49;;;;;;;1.90;1.10;;;20.90;99.90;;;;;;4935215;29;20561;-73
2022/05/22 12:10:24;;;;;;;1.60;1.07;;;20.80;99.90;;;;;;4928316;29;21030;-72
2022/05/22 12:12:55;;;;;;;1.37;0.97;;;20.70;99.90;;;;;;4923634;29;21007;-74
2022/05/22 12:15:31;;;;;;;3.17;0.87;;;20.60;99.90;;;;;;4924914;29;20476;-73
2022/05/22 12:18:12;;;;;;;4.60;1.17;;;20.70;99.90;;;;;;4923847;29;20824;-73
2022/05/22 12:20:49;;;;;;;1.10;0.77;;;20.70;99.90;;;;;;4923836;29;20469;-73
2022/05/22 12:23:26;;;;;;;3.87;1.20;;;20.70;99.90;;;;;;4928099;29;20610;-71
2022/05/22 12:25:56;;;;;;;3.13;1.00;;;20.60;99.90;;;;;;4928695;29;20460;-73
2022/05/22 12:28:42;;;;;;;0.80;0.80;;;20.50;99.90;;;;;;4930477;29;20453;-73
2022/05/22 12:31:14;;;;;;;3.23;1.10;;;20.30;99.90;;;;;;4941054;29;20779;-72
2022/05/22 12:33:42;;;;;;;2.80;1.13;;;20.30;99.90;;;;;;4941071;29;20459;-73
2022/05/22 12:36:13;;;;;;;3.13;1.37;;;20.30;99.90;;;;;;4931145;29;20586;-73
2022/05/22 12:38:49;;;;;;;2.00;1.00;;;20.20;99.90;;;;;;4938248;29;20774;-71
2022/05/22 12:41:40;;;;;;;1.33;0.90;;;20.20;99.90;;;;;;4923064;29;20485;-70
2022/05/22 12:44:09;;;;;;;3.23;0.93;;;20.30;99.90;;;;;;4923223;29;20500;-71
2022/05/22 12:46:39;;;;;;;0.57;0.50;;;20.40;99.90;;;;;;4925559;29;20468;-71
2022/05/22 12:49:10;;;;;;;2.77;0.90;;;20.50;99.90;;;;;;4926760;29;20966;-70
2022/05/22 12:51:42;;;;;;;1.20;0.70;;;20.60;99.90;;;;;;4922745;29;20712;-70
2022/05/22 12:54:21;;;;;;;2.50;0.90;;;20.60;99.30;;;;;;4928572;29;20452;-71
2022/05/22 12:56:50;;;;;;;2.67;1.23;;;20.50;99.60;;;;;;4922472;29;20763;-71
2022/05/22 12:59:22;;;;;;;1.50;0.93;;;20.40;99.50;;;;;;4923010;29;20460;-68
2022/05/22 13:01:52;;;;;;;1.47;0.93;;;20.40;99.70;;;;;;4925811;29;20469;-69
2022/05/22 13:04:31;;;;;;;1.47;1.33;;;20.30;99.90;;;;;;4926982;29;20564;-70
2022/05/22 13:07:03;;;;;;;1.37;0.93;;;20.20;99.90;;;;;;4923463;29;20655;-68
2022/05/22 13:09:41;;;;;;;1.90;1.20;;;20.10;99.90;;;;;;4934016;29;20445;-70
2022/05/22 13:12:26;;;;;;;4.50;1.40;;;20.00;99.90;;;;;;4941686;29;20460;-69
2022/05/22 13:14:58;;;;;;;2.10;0.97;;;20.00;99.90;;;;;;4941814;29;20572;-69
2022/05/22 13:17:36;;;;;;;2.63;1.03;;;20.00;99.90;;;;;;4941828;29;20609;-70
2022/05/22 13:20:06;;;;;;;1.10;1.00;;;20.00;99.90;;;;;;4941737;28;20453;-67
2022/05/22 13:22:37;;;;;;;3.30;0.83;;;19.90;99.90;;;;;;4941590;29;20596;-67
2022/05/22 13:25:10;;;;;;;0.50;0.40;;;19.90;99.40;;;;;;4941225;29;20537;-66
2022/05/22 13:27:41;;;;;;;5.00;1.57;;;19.90;98.80;;;;;;4941596;29;21119;-67